Time;durP1;ratioP1;P1;durP2;ratioP2;P2;SDS_P1;SDS_P2;PMS_P1;PMS_P2;Temp;Humidity;BMP_temperature;BMP_pressure;BME280_temperature;BME280_humidity;BME280_pressure;Samples;Min_cycle;Max_cycle;Signal;HPM_P1;HPM_P2
2021/04/16 00:02:55;;;;;;;1.01;0.95;;;;;;;1.83;66.93;100264.00;2002150;78;20443;-69
2021/04/16 00:05:58;;;;;;;0.80;0.80;;;;;;;1.85;66.68;100253.81;2003078;80;20319;-68
2021/04/16 00:08:59;;;;;;;2.58;0.82;;;;;;;1.70;67.37;100257.44;2002885;80;20838;-68
2021/04/16 00:12:04;;;;;;;1.76;0.80;;;;;;;1.64;67.63;100257.19;2003341;80;20335;-69
2021/04/16 00:15:10;;;;;;;0.93;0.76;;;;;;;1.55;68.14;100249.06;2002747;80;20390;-68
2021/04/16 00:18:14;;;;;;;1.29;0.84;;;;;;;1.52;68.03;100247.25;2002308;77;20587;-68
2021/04/16 00:21:17;;;;;;;3.01;0.98;;;;;;;1.42;68.79;100244.19;2003137;80;20942;-68
2021/04/16 00:24:18;;;;;;;0.89;0.86;;;;;;;1.43;68.40;100249.38;2003214;80;20315;-68
2021/04/16 00:27:20;;;;;;;1.16;0.80;;;;;;;1.53;67.55;100253.25;2002865;80;20360;-68
2021/04/16 00:30:30;;;;;;;1.09;0.86;;;;;;;1.53;67.70;100235.31;2001923;78;21329;-68
2021/04/16 00:33:32;;;;;;;1.15;0.90;;;;;;;1.54;67.61;100237.06;2003946;80;20459;-68
2021/04/16 00:36:34;;;;;;;2.58;0.91;;;;;;;1.54;67.95;100231.97;2004316;80;20319;-68
2021/04/16 00:39:36;;;;;;;1.35;0.80;;;;;;;1.51;68.33;100234.38;2004188;80;20363;-68
2021/04/16 00:42:38;;;;;;;2.16;1.10;;;;;;;1.47;68.78;100238.50;2003824;80;20319;-68
2021/04/16 00:45:40;;;;;;;1.90;1.00;;;;;;;1.48;69.13;100234.25;2003031;78;20460;-68
2021/04/16 00:48:58;;;;;;;1.02;0.66;;;;;;;1.45;69.29;100227.31;2004030;80;20400;-68
2021/04/16 00:52:03;;;;;;;1.31;0.90;;;;;;;1.47;69.27;100228.25;2003874;80;20327;-68
2021/04/16 00:55:06;;;;;;;2.53;0.93;;;;;;;1.39;70.25;100221.03;2003725;80;20319;-69
2021/04/16 00:58:08;;;;;;;1.98;0.88;;;;;;;1.43;69.60;100221.22;2004183;80;20340;-68
2021/04/16 01:01:10;;;;;;;1.58;0.86;;;;;;;1.43;69.65;100226.34;2005624;80;20515;-68
2021/04/16 01:04:12;;;;;;;1.13;0.77;;;;;;;1.46;69.85;100223.94;2004379;80;21130;-68
2021/04/16 01:07:15;;;;;;;1.00;0.80;;;;;;;1.51;70.07;100221.59;2003625;80;20386;-69
2021/04/16 01:10:17;;;;;;;1.10;1.00;;;;;;;1.58;69.49;100225.28;2004138;80;20345;-69
2021/04/16 01:13:20;;;;;;;1.99;0.81;;;;;;;1.64;69.25;100218.78;2004172;80;20345;-69
2021/04/16 01:16:29;;;;;;;1.50;0.86;;;;;;;1.70;69.37;100210.50;2003343;77;23794;-68
2021/04/16 01:19:46;;;;;;;1.48;0.86;;;;;;;1.74;68.84;100213.25;2004453;80;20327;-68
2021/04/16 01:23:15;;;;;;;1.06;0.96;;;;;;;1.78;68.42;100222.78;2004122;80;20169;-68
2021/04/16 01:26:24;;;;;;;1.03;0.93;;;;;;;1.79;68.34;100206.63;2003390;80;20349;-68
2021/04/16 01:29:27;;;;;;;2.83;0.89;;;;;;;1.83;68.15;100217.91;2004346;80;20295;-68
2021/04/16 01:32:31;;;;;;;1.10;1.00;;;;;;;1.88;68.09;100215.53;2003209;77;20672;-68
2021/04/16 01:35:34;;;;;;;0.96;0.85;;;;;;;1.89;67.72;100218.16;2003517;80;21160;-68
2021/04/16 01:38:36;;;;;;;0.90;0.69;;;;;;;1.94;67.37;100210.66;2004394;80;20906;-69
2021/04/16 01:41:38;;;;;;;2.49;0.89;;;;;;;1.98;67.46;100210.00;2004700;80;20737;-68
2021/04/16 01:44:43;;;;;;;2.08;1.00;;;;;;;1.97;67.70;100208.22;2004014;80;20338;-69
2021/04/16 01:47:58;;;;;;;0.74;0.74;;;;;;;1.99;67.37;100198.97;2002603;80;20463;-68
2021/04/16 01:51:00;;;;;;;2.83;0.79;;;;;;;2.13;66.31;100205.50;2003516;80;20365;-69
2021/04/16 01:54:14;;;;;;;5.59;0.94;;;;;;;2.15;66.31;100203.88;2004664;80;20375;-69
2021/04/16 01:57:26;;;;;;;1.11;0.99;;;;;;;2.19;65.73;100202.34;2004746;80;20345;-68
2021/04/16 02:00:38;;;;;;;1.01;0.88;;;;;;;2.21;65.73;100201.59;2004442;78;22065;-69
2021/04/16 02:03:40;;;;;;;1.70;0.93;;;;;;;2.21;66.40;100195.59;2005803;80;20307;-69
2021/04/16 02:06:42;;;;;;;1.16;0.90;;;;;;;2.24;66.17;100195.72;2006237;80;20307;-69
2021/04/16 02:09:44;;;;;;;1.38;0.71;;;;;;;2.30;65.13;100189.16;2006517;80;20653;-69
2021/04/16 02:12:46;;;;;;;1.56;0.81;;;;;;;2.39;64.41;100188.69;2006549;80;20810;-69
2021/04/16 02:15:48;;;;;;;3.64;0.96;;;;;;;2.46;63.78;100185.53;2004899;77;21125;-69
2021/04/16 02:18:52;;;;;;;3.01;0.86;;;;;;;2.51;63.73;100185.72;2005720;80;20321;-70
2021/04/16 02:21:54;;;;;;;1.59;0.80;;;;;;;2.54;63.73;100184.19;2005731;80;20359;-69
2021/04/16 02:24:56;;;;;;;1.00;0.79;;;;;;;2.56;63.60;100179.97;2006046;80;20308;-69
2021/04/16 02:27:57;;;;;;;1.31;0.80;;;;;;;2.55;64.68;100182.50;2005092;80;20380;-69
2021/04/16 02:30:59;;;;;;;1.15;0.90;;;;;;;2.48;65.10;100181.34;2005368;78;20733;-69
2021/04/16 02:34:02;;;;;;;2.00;1.00;;;;;;;2.51;64.09;100184.03;2005930;80;20433;-69
2021/04/16 02:37:09;;;;;;;1.38;0.99;;;;;;;2.56;63.69;100177.41;2006113;80;20333;-69
2021/04/16 02:40:16;;;;;;;1.56;1.16;;;;;;;2.59;63.96;100177.53;2006252;80;20320;-70
2021/04/16 02:43:18;;;;;;;1.50;1.11;;;;;;;2.59;64.09;100185.22;2005786;80;20319;-69
2021/04/16 02:46:20;;;;;;;2.15;1.01;;;;;;;2.60;64.15;100180.97;2005117;77;22397;-70
2021/04/16 02:49:22;;;;;;;1.26;0.98;;;;;;;2.61;63.59;100178.47;2006081;80;20928;-70
2021/04/16 02:52:24;;;;;;;1.60;0.90;;;;;;;2.70;62.90;100178.84;2006071;80;20341;-70
2021/04/16 02:55:25;;;;;;;2.21;1.10;;;;;;;2.74;62.39;100182.41;2005895;80;20339;-70
2021/04/16 02:58:29;;;;;;;1.77;1.13;;;;;;;2.76;62.05;100175.63;2005778;80;20311;-69
2021/04/16 03:01:31;;;;;;;0.82;0.82;;;;;;;2.82;61.84;100170.75;2005336;77;22346;-70
2021/04/16 03:04:33;;;;;;;1.46;0.89;;;;;;;2.84;61.79;100170.81;2003953;80;20359;-70
2021/04/16 03:07:35;;;;;;;1.26;1.10;;;;;;;2.78;62.87;100168.88;2005267;80;21437;-69
2021/04/16 03:10:37;;;;;;;1.92;1.04;;;;;;;2.73;63.68;100171.28;2004204;80;20348;-70
2021/04/16 03:13:39;;;;;;;1.48;1.10;;;;;;;2.68;64.42;100170.19;2003943;80;20315;-69
2021/04/16 03:16:41;;;;;;;1.73;0.85;;;;;;;2.58;65.21;100167.22;2003103;78;20983;-69
2021/04/16 03:19:43;;;;;;;2.05;0.80;;;;;;;2.53;65.67;100176.44;2004538;80;21248;-69
2021/04/16 03:22:45;;;;;;;2.03;1.10;;;;;;;2.48;65.03;100172.78;2007705;80;20357;-69
2021/04/16 03:25:46;;;;;;;0.96;0.80;;;;;;;2.41;65.19;100169.97;2004811;80;20672;-69
2021/04/16 03:28:56;;;;;;;2.40;0.96;;;;;;;2.38;65.43;100169.88;2004506;80;20340;-69
2021/04/16 03:31:58;;;;;;;1.14;1.00;;;;;;;2.32;65.45;100167.03;2003843;77;20368;-69
2021/04/16 03:35:00;;;;;;;1.30;0.91;;;;;;;2.29;65.32;100172.03;2004916;80;20984;-69
2021/04/16 03:38:02;;;;;;;2.58;1.00;;;;;;;2.24;65.75;100162.41;2004304;80;20348;-70
2021/04/16 03:41:04;;;;;;;1.15;0.98;;;;;;;2.18;66.40;100168.19;2004364;80;20320;-69
2021/04/16 03:44:06;;;;;;;1.08;0.91;;;;;;;2.13;66.75;100167.97;2004585;80;20379;-70
2021/04/16 03:47:08;;;;;;;0.93;0.93;;;;;;;2.07;67.30;100175.41;2003552;78;21512;-70
2021/04/16 03:50:12;;;;;;;0.81;0.80;;;;;;;2.00;67.35;100175.97;2004882;80;20334;-69
2021/04/16 03:53:14;;;;;;;1.31;0.77;;;;;;;2.00;67.37;100168.28;2003924;80;20327;-69
2021/04/16 03:56:17;;;;;;;1.86;1.04;;;;;;;1.98;67.28;100176.72;2004172;80;20344;-69
2021/04/16 03:59:21;;;;;;;1.20;1.05;;;;;;;1.96;67.91;100174.06;2003990;80;20341;-69
2021/04/16 04:02:24;;;;;;;1.25;1.00;;;;;;;1.95;67.82;100176.56;2003967;77;20602;-70
2021/04/16 04:05:26;;;;;;;2.44;1.10;;;;;;;1.91;68.09;100183.25;2003842;80;20335;-69
2021/04/16 04:08:28;;;;;;;1.64;1.05;;;;;;;1.87;68.11;100181.38;2004145;80;20914;-69
2021/04/16 04:11:30;;;;;;;1.96;1.04;;;;;;;1.85;68.30;100170.19;2004309;80;20694;-69
2021/04/16 04:14:31;;;;;;;2.66;1.13;;;;;;;1.86;68.03;100179.63;2004300;80;20360;-69
2021/04/16 04:17:35;;;;;;;2.19;1.27;;;;;;;1.86;68.06;100179.63;2002696;78;36505;-69
2021/04/16 04:20:38;;;;;;;1.66;1.33;;;;;;;1.93;67.73;100181.63;2004029;80;20327;-69
2021/04/16 04:23:40;;;;;;;2.04;1.10;;;;;;;1.99;67.80;100181.03;2003853;80;20349;-70
2021/04/16 04:26:43;;;;;;;2.19;1.10;;;;;;;2.02;67.60;100183.72;2004411;80;20339;-69
2021/04/16 04:29:45;;;;;;;3.30;2.69;;;;;;;2.02;67.60;100178.59;2004265;80;20311;-69
2021/04/16 04:32:46;;;;;;;1.14;1.04;;;;;;;2.00;67.65;100183.66;2003714;77;20725;-69
2021/04/16 04:35:48;;;;;;;2.19;1.31;;;;;;;1.95;67.40;100184.25;2003919;80;20789;-69
2021/04/16 04:38:54;;;;;;;3.29;1.20;;;;;;;1.93;67.34;100180.75;2004425;80;20315;-69
2021/04/16 04:41:56;;;;;;;1.54;1.24;;;;;;;1.89;67.31;100184.88;2004461;80;20307;-69
2021/04/16 04:44:58;;;;;;;1.19;0.96;;;;;;;1.83;67.23;100188.88;2004512;80;20327;-70
2021/04/16 04:48:00;;;;;;;3.05;1.14;;;;;;;1.79;67.35;100185.28;2004160;78;21735;-69
2021/04/16 04:51:03;;;;;;;1.90;1.06;;;;;;;1.79;67.37;100185.28;2003598;80;20345;-70
2021/04/16 04:54:09;;;;;;;1.33;1.23;;;;;;;1.82;67.36;100188.00;2004192;80;20842;-69
2021/04/16 04:57:11;;;;;;;2.96;1.15;;;;;;;1.83;67.58;100189.75;2003956;80;20329;-69
2021/04/16 05:00:17;;;;;;;2.29;1.27;;;;;;;1.85;67.87;100184.69;2003197;77;20482;-70
2021/04/16 05:03:19;;;;;;;1.92;1.19;;;;;;;1.82;68.11;100188.00;2003501;80;20342;-70
2021/04/16 05:06:21;;;;;;;1.69;1.06;;;;;;;1.89;67.94;100184.00;2004539;80;20801;-70
2021/04/16 05:09:23;;;;;;;1.08;1.00;;;;;;;1.92;68.06;100187.56;2004072;80;20311;-70
2021/04/16 05:12:24;;;;;;;2.16;1.11;;;;;;;1.96;68.09;100184.31;2004342;80;20311;-70
2021/04/16 05:15:26;;;;;;;1.48;1.09;;;;;;;2.01;68.04;100182.84;2003080;77;20832;-70
2021/04/16 05:18:28;;;;;;;2.50;1.33;;;;;;;2.08;68.01;100176.28;2004451;80;20662;-69
2021/04/16 05:21:30;;;;;;;4.19;1.14;;;;;;;2.17;67.63;100186.94;2004679;80;20331;-69
2021/04/16 05:24:33;;;;;;;1.00;0.99;;;;;;;2.26;66.96;100177.03;2004000;80;20888;-70
2021/04/16 05:27:34;;;;;;;2.15;1.09;;;;;;;2.36;67.52;100176.63;2005064;80;20307;-69
2021/04/16 05:30:36;;;;;;;1.01;0.85;;;;;;;2.41;68.42;100179.34;2003873;77;21522;-70
2021/04/16 05:33:38;;;;;;;1.15;0.96;;;;;;;2.44;69.01;100182.03;2004876;80;20349;-70
2021/04/16 05:36:40;;;;;;;1.11;0.94;;;;;;;2.42;69.53;100181.97;2005175;80;20323;-70
2021/04/16 05:39:42;;;;;;;3.14;1.26;;;;;;;2.49;69.53;100183.09;2005442;80;20327;-73
2021/04/16 05:42:44;;;;;;;1.90;1.04;;;;;;;2.58;69.45;100188.59;2005259;80;20337;-74
2021/04/16 05:45:45;;;;;;;1.21;1.11;;;;;;;2.68;68.82;100189.84;2003312;78;20366;-73
2021/04/16 05:48:47;;;;;;;5.35;1.20;;;;;;;2.78;68.19;100191.97;2005154;80;20372;-73
2021/04/16 05:51:48;;;;;;;2.54;1.29;;;;;;;2.87;68.03;100191.44;2004031;80;20348;-73
2021/04/16 05:54:50;;;;;;;2.74;1.89;;;;;;;2.95;67.22;100190.06;2003341;80;20338;-73
2021/04/16 05:57:52;;;;;;;2.76;1.27;;;;;;;3.05;66.57;100187.00;2002794;80;20323;-73
2021/04/16 06:00:53;;;;;;;2.17;1.10;;;;;;;3.10;66.00;100184.66;2001630;77;21235;-74
2021/04/16 06:03:56;;;;;;;1.67;1.21;;;;;;;3.15;65.41;100188.25;2002614;80;20319;-73
2021/04/16 06:06:58;;;;;;;2.50;1.49;;;;;;;3.18;65.37;100191.81;2003790;80;20335;-73
2021/04/16 06:10:00;;;;;;;2.53;1.26;;;;;;;3.21;65.86;100186.78;2003195;80;20825;-73
2021/04/16 06:13:03;;;;;;;3.45;1.38;;;;;;;3.15;66.92;100191.69;2002455;80;20384;-74
2021/04/16 06:16:06;;;;;;;13.98;2.38;;;;;;;3.14;67.49;100183.94;2003405;77;20877;-74
2021/04/16 06:19:08;;;;;;;5.44;2.47;;;;;;;3.18;67.46;100189.22;2003470;80;20859;-74
2021/04/16 06:22:10;;;;;;;3.59;1.64;;;;;;;3.20;67.31;100194.41;2003673;80;20329;-72
2021/04/16 06:25:14;;;;;;;2.64;1.26;;;;;;;3.20;67.18;100186.72;2003487;80;20315;-73
2021/04/16 06:28:16;;;;;;;3.54;1.61;;;;;;;3.24;66.51;100189.50;2003227;80;20333;-73
2021/04/16 06:31:18;;;;;;;1.50;1.21;;;;;;;3.29;66.13;100187.09;2002614;77;20789;-73
2021/04/16 06:34:20;;;;;;;1.66;1.49;;;;;;;3.39;66.05;100175.44;2003300;80;20315;-73
2021/04/16 06:37:22;;;;;;;2.95;1.36;;;;;;;3.52;65.80;100183.66;2003437;80;20372;-72
2021/04/16 06:40:24;;;;;;;2.03;1.70;;;;;;;3.66;65.20;100176.47;2005402;80;20403;-73
2021/04/16 06:43:42;;;;;;;1.89;1.49;;;;;;;3.76;64.80;100175.94;2004848;80;20648;-72
2021/04/16 06:46:51;;;;;;;2.91;1.41;;;;;;;3.91;64.84;100176.50;2004662;77;20339;-73
2021/04/16 06:49:55;;;;;;;;;;;;;;;4.07;64.64;100182.16;2005879;80;20347;-73
2021/04/16 06:53:23;;;;;;;3.41;1.15;;;;;;;4.27;64.20;100178.56;2005432;80;20079;-72
2021/04/16 06:56:36;;;;;;;1.14;1.02;;;;;;;4.47;63.56;100174.06;2005639;80;20364;-72
2021/04/16 06:59:38;;;;;;;1.45;1.27;;;;;;;4.68;63.37;100182.50;2005181;80;20311;-71
2021/04/16 07:02:47;;;;;;;2.53;1.15;;;;;;;4.84;62.24;100176.97;2004486;78;21784;-73
2021/04/16 07:05:56;;;;;;;1.36;1.04;;;;;;;5.07;61.15;100174.25;2004345;80;20748;-72
2021/04/16 07:08:58;;;;;;;;;;;;;;;5.33;60.29;100168.16;2005326;80;20357;-73
2021/04/16 07:12:19;;;;;;;1.12;1.00;;;;;;;5.66;59.44;100178.56;2006501;80;20353;-72
2021/04/16 07:15:34;;;;;;;1.26;0.89;;;;;;;5.93;58.09;100164.72;2005670;78;22170;-72
2021/04/16 07:18:39;;;;;;;1.10;1.00;;;;;;;6.36;57.75;100166.69;2007128;80;20345;-73
2021/04/16 07:21:42;;;;;;;0.98;0.84;;;;;;;6.74;56.24;100169.31;2006768;80;20312;-72
2021/04/16 07:24:45;;;;;;;2.85;0.90;;;;;;;7.19;54.79;100167.78;2006761;80;20466;-71
2021/04/16 07:27:55;;;;;;;1.21;1.00;;;;;;;7.61;53.31;100166.06;2007043;80;20369;-72
2021/04/16 07:30:57;;;;;;;2.86;1.04;;;;;;;7.83;51.25;100161.31;2005840;77;20311;-69
2021/04/16 07:34:00;;;;;;;1.55;0.94;;;;;;;7.94;51.18;100163.25;2006174;80;20344;-72
2021/04/16 07:37:13;;;;;;;1.35;0.95;;;;;;;7.99;51.22;100161.59;2006327;80;20297;-71
2021/04/16 07:40:25;;;;;;;1.26;0.89;;;;;;;8.24;50.26;100163.78;2006738;80;20381;-70
2021/04/16 07:43:47;;;;;;;2.16;0.96;;;;;;;8.23;50.30;100162.03;2006749;80;20320;-71
2021/04/16 07:46:56;;;;;;;1.05;0.90;;;;;;;7.91;49.55;100165.78;2005885;77;21967;-70
2021/04/16 07:50:13;;;;;;;4.34;1.15;;;;;;;7.75;49.83;100164.63;2006453;80;20723;-70
2021/04/16 07:53:30;;;;;;;1.20;0.85;;;;;;;7.49;49.85;100157.19;2009518;80;20348;-71
2021/04/16 07:56:33;;;;;;;2.49;0.89;;;;;;;7.11;49.75;100161.56;2007042;80;20210;-70
2021/04/16 07:59:54;;;;;;;4.29;1.10;;;;;;;6.79;50.41;100168.59;2006956;80;20459;-70
2021/04/16 08:03:11;;;;;;;0.90;0.89;;;;;;;6.90;50.93;100166.25;2004243;77;21529;-73
2021/04/16 08:06:29;;;;;;;2.50;1.00;;;;;;;6.83;50.86;100160.09;2004422;80;20304;-70
2021/04/16 08:09:33;;;;;;;1.79;1.00;;;;;;;6.70;50.97;100165.81;2004584;80;20435;-71
2021/04/16 08:12:35;;;;;;;1.49;1.05;;;;;;;6.70;51.24;100162.34;2004546;80;20799;-71
2021/04/16 08:15:37;;;;;;;0.91;0.90;;;;;;;6.92;51.15;100162.88;2003481;78;22254;-72
2021/04/16 08:18:41;;;;;;;1.00;0.89;;;;;;;7.56;50.83;100159.09;2004538;80;20311;-71
2021/04/16 08:21:47;;;;;;;0.80;0.80;;;;;;;7.77;50.11;100161.22;2005033;80;21145;-70
2021/04/16 08:24:55;;;;;;;4.40;0.94;;;;;;;7.73;48.60;100164.59;2004703;80;21153;-70
2021/04/16 08:28:10;;;;;;;3.91;1.10;;;;;;;7.72;48.70;100155.09;2004607;80;20165;-71
2021/04/16 08:31:16;;;;;;;3.97;0.93;;;;;;;7.71;48.31;100167.97;2003940;80;20904;-70
2021/04/16 08:34:44;;;;;;;1.67;0.98;;;;;;;7.84;48.20;100170.81;2007569;80;20221;-71
2021/04/16 08:37:55;;;;;;;1.94;1.00;;;;;;;8.00;47.76;100153.00;2004318;80;20670;-71
2021/04/16 08:41:01;;;;;;;1.48;0.91;;;;;;;8.30;47.33;100160.44;2005040;80;20307;-71
2021/04/16 08:44:07;;;;;;;2.42;0.89;;;;;;;8.44;46.58;100162.47;2004209;80;20229;-71
2021/04/16 08:47:21;;;;;;;6.04;1.06;;;;;;;8.41;46.24;100161.50;2004234;80;31755;-71
2021/04/16 08:50:28;;;;;;;3.59;0.90;;;;;;;8.87;45.64;100165.69;2004386;80;20173;-70
2021/04/16 08:53:30;;;;;;;1.21;0.95;;;;;;;9.70;44.74;100162.50;2005034;80;20185;-71
2021/04/16 08:56:47;;;;;;;5.19;1.21;;;;;;;10.51;43.82;100153.78;2004634;80;20207;-71
2021/04/16 09:00:12;;;;;;;1.41;0.70;;;;;;;10.99;42.05;100152.41;2005575;80;20204;-71
2021/04/16 09:03:19;;;;;;;2.04;0.65;;;;;;;11.43;40.12;100150.03;1999736;78;20774;-71
2021/04/16 09:06:30;;;;;;;0.94;0.66;;;;;;;11.38;39.59;100164.75;2001153;81;20174;-72
2021/04/16 09:09:50;;;;;;;5.76;0.74;;;;;;;10.80;39.14;100154.03;2001103;81;20186;-71
2021/04/16 09:12:57;;;;;;;3.13;0.96;;;;;;;10.18;39.35;100164.72;2001164;81;20631;-73
2021/04/16 09:16:14;;;;;;;2.22;1.00;;;;;;;9.75;40.76;100170.31;2000789;77;20253;-71
2021/04/16 09:19:25;;;;;;;4.35;0.82;;;;;;;9.27;41.42;100172.31;2005801;80;20282;-70
2021/04/16 09:22:41;;;;;;;2.26;1.10;;;;;;;8.84;41.71;100178.63;2005700;80;20583;-70
2021/04/16 09:25:47;;;;;;;3.08;1.21;;;;;;;8.54;42.69;100178.13;2004908;80;20228;-70
2021/04/16 09:28:54;;;;;;;2.60;0.80;;;;;;;8.09;43.23;100173.88;2004646;80;20173;-70
2021/04/16 09:32:04;;;;;;;2.04;0.74;;;;;;;7.91;43.91;100176.13;2005059;77;20300;-70
2021/04/16 09:35:31;;;;;;;1.24;0.65;;;;;;;7.87;44.24;100173.47;2005286;80;20214;-70
2021/04/16 09:38:39;;;;;;;2.40;0.80;;;;;;;7.78;45.42;100168.13;2005580;80;20181;-71
2021/04/16 09:41:45;;;;;;;2.09;0.75;;;;;;;7.62;45.53;100171.25;2005558;80;20197;-71
2021/04/16 09:44:56;;;;;;;2.01;0.79;;;;;;;7.67;46.08;100172.19;2013947;80;20173;-83
2021/04/16 09:48:06;;;;;;;1.14;0.91;;;;;;;7.68;46.39;100171.34;2018368;78;22203;-82
2021/04/16 09:51:08;;;;;;;1.00;0.73;;;;;;;7.86;46.30;100169.13;2020110;80;20405;-84
2021/04/16 09:54:13;;;;;;;4.00;0.88;;;;;;;8.22;46.61;100170.66;2021122;80;20331;-82
2021/04/16 09:57:14;;;;;;;0.85;0.73;;;;;;;8.51;45.72;100166.00;2017337;80;20218;-83
2021/04/16 10:03:32;;;;;;;4.20;0.86;;;;;;;8.62;43.90;100166.19;2013302;80;20284;-84
2021/04/16 10:06:42;;;;;;;1.74;1.10;;;;;;;8.28;43.96;100163.00;2010881;81;20175;-81
2021/04/16 10:09:44;;;;;;;0.89;0.89;;;;;;;7.96;44.50;100166.72;2007183;81;20175;-83
2021/04/16 10:12:47;;;;;;;1.38;0.73;;;;;;;7.66;44.84;100167.88;2017688;81;20292;-84
2021/04/16 10:15:52;;;;;;;1.10;0.81;;;;;;;7.72;45.82;100172.28;2008590;81;20316;-84
2021/04/16 10:18:54;;;;;;;1.96;1.01;;;;;;;7.73;45.91;100162.00;2010319;81;20326;-85
2021/04/16 10:21:56;;;;;;;1.74;0.90;;;;;;;7.99;46.32;100154.72;2014486;81;20353;-85
2021/04/16 10:50:46;;;;;;;0.70;0.70;;;;;;;8.04;45.50;100149.63;2008937;81;20391;-84
2021/04/16 12:49:08;;;;;;;1.15;0.52;;;;;;;8.81;43.60;100123.31;1975316;82;20237;-84
2021/04/16 12:55:30;;;;;;;1.13;0.56;;;;;;;8.65;43.23;100117.91;2212655;71;20223;-82
2021/04/16 12:59:12;;;;;;;1.24;0.73;;;;;;;8.54;43.23;100113.41;2097188;71;20995;-85
2021/04/16 13:05:35;;;;;;;0.74;0.40;;;;;;;8.44;43.43;100118.47;2050627;71;22936;-79
2021/04/16 13:08:38;;;;;;;2.45;0.46;;;;;;;8.45;44.32;100124.50;2088307;71;20272;-84
2021/04/16 13:11:41;;;;;;;0.89;0.50;;;;;;;8.59;43.82;100124.69;2017368;71;20259;-83
2021/04/16 13:14:43;;;;;;;1.41;0.40;;;;;;;8.73;43.12;100120.59;2112831;71;20190;-84
2021/04/16 13:17:51;;;;;;;0.40;0.40;;;;;;;8.85;43.68;100114.75;2064711;71;20734;-84
2021/04/16 13:24:26;;;;;;;1.05;0.40;;;;;;;9.07;42.48;100111.59;2218628;71;20219;-81
2021/04/16 13:39:02;;;;;;;0.74;0.50;;;;;;;9.73;42.05;100092.50;2090549;71;20223;31
2021/04/16 13:45:36;;;;;;;1.66;0.71;;;;;;;9.51;40.88;100087.91;2203548;71;20252;31
2021/04/16 13:56:11;;;;;;;1.61;0.60;;;;;;;9.07;42.24;100086.56;2153198;71;20221;-80
2021/04/16 13:59:13;;;;;;;0.49;0.43;;;;;;;8.95;42.08;100081.19;2124570;72;20231;-85
2021/04/16 14:02:25;;;;;;;0.59;0.40;;;;;;;8.74;41.52;100078.31;2197792;71;21203;31
2021/04/16 14:25:28;;;;;;;0.54;0.41;;;;;;;8.59;43.61;100078.97;2213334;72;20364;31
2021/04/16 14:39:51;;;;;;;0.75;0.43;;;;;;;9.18;43.26;100068.56;2208571;72;20225;31
2021/04/16 14:55:00;;;;;;;0.86;0.36;;;;;;;9.82;42.26;100055.41;2133442;72;21447;31
2021/04/16 14:58:10;;;;;;;1.00;0.40;;;;;;;9.99;41.50;100046.03;2172574;72;20229;31
2021/04/16 15:09:08;;;;;;;2.63;0.65;;;;;;;9.63;42.26;100037.06;2209348;72;20220;31
2021/04/16 15:22:41;;;;;;;0.50;0.46;;;;;;;9.54;42.85;100036.13;2203630;72;20233;-83
2021/04/16 15:25:55;;;;;;;0.76;0.66;;;;;;;9.54;42.64;100051.69;2007434;72;20132;-85
2021/04/16 15:29:09;;;;;;;0.63;0.50;;;;;;;9.41;42.04;100050.69;2152560;72;20313;31
2021/04/16 15:32:20;;;;;;;1.59;0.41;;;;;;;9.23;41.57;100048.75;2058507;72;261605;31
2021/04/16 15:48:40;;;;;;;0.68;0.60;;;;;;;9.18;42.85;100029.69;2173438;72;20180;31
2021/04/16 15:52:28;;;;;;;2.11;0.64;;;;;;;9.12;43.15;100036.50;2042720;72;20246;31
2021/04/16 15:59:31;;;;;;;1.01;0.68;;;;;;;8.91;43.53;100027.63;1997598;72;20183;-83
2021/04/16 16:09:20;;;;;;;1.16;0.50;;;;;;;8.80;44.67;100031.81;2092101;72;20252;-85
2021/04/16 16:12:23;;;;;;;0.76;0.55;;;;;;;8.80;44.63;100037.00;2128620;72;20260;-82
2021/04/16 16:15:37;;;;;;;1.95;0.41;;;;;;;8.77;45.03;100035.22;1983173;79;20144;31
2021/04/16 16:19:11;;;;;;;0.76;0.57;;;;;;;8.67;45.39;100032.50;2073214;72;20228;-85
2021/04/16 16:22:14;;;;;;;0.55;0.47;;;;;;;8.62;45.72;100037.63;2185795;72;20331;-83
2021/04/16 16:29:28;;;;;;;1.00;0.50;;;;;;;8.48;46.33;100044.31;2209392;72;20240;31
2021/04/16 16:48:26;;;;;;;0.60;0.60;;;;;;;8.52;47.38;100047.81;2163214;72;21175;31
2021/04/16 16:51:30;;;;;;;0.99;0.62;;;;;;;8.46;47.49;100048.63;1976880;83;20290;-76
2021/04/16 16:54:32;;;;;;;2.89;0.51;;;;;;;8.52;47.64;100050.41;2116981;71;20285;-80
2021/04/16 16:57:37;;;;;;;1.25;0.70;;;;;;;8.50;47.39;100054.69;2049956;72;21193;31
2021/04/16 17:08:03;;;;;;;0.75;0.50;;;;;;;8.25;47.53;100059.44;2075078;72;20083;-84
2021/04/16 17:11:25;;;;;;;2.04;0.44;;;;;;;8.19;48.18;100054.19;2045261;72;20151;31
2021/04/16 17:22:04;;;;;;;0.46;0.40;;;;;;;7.99;49.07;100058.16;2093056;72;20186;-86
2021/04/16 17:25:07;;;;;;;0.82;0.50;;;;;;;7.95;49.24;100059.84;2080300;72;20199;-87
2021/04/16 17:46:40;;;;;;;0.79;0.59;;;;;;;7.77;50.07;100067.28;2003093;72;40330;-80
2021/04/16 17:49:42;;;;;;;0.69;0.52;;;;;;;7.68;50.52;100067.97;1976613;82;20370;-82
2021/04/16 17:59:38;;;;;;;0.57;0.51;;;;;;;7.53;51.47;100067.69;2147501;72;20360;-86
2021/04/16 18:06:04;;;;;;;1.66;0.70;;;;;;;7.48;51.95;100082.25;2197751;72;20400;-82
2021/04/16 18:09:09;;;;;;;2.85;0.80;;;;;;;7.43;52.13;100078.72;2034809;72;20294;-88
2021/04/16 18:12:11;;;;;;;0.60;0.60;;;;;;;7.37;53.15;100079.47;1961825;83;20345;-85
2021/04/16 18:15:17;;;;;;;1.36;0.60;;;;;;;7.26;53.97;100093.88;1979711;72;20309;-86
2021/04/16 18:18:19;;;;;;;0.60;0.60;;;;;;;7.20;54.05;100091.19;1971605;82;20409;-80
2021/04/16 18:21:25;;;;;;;2.00;0.60;;;;;;;7.13;54.76;100092.75;1976737;82;20321;-81
2021/04/16 18:24:38;;;;;;;1.58;0.50;;;;;;;7.06;55.70;100096.06;1971238;82;20390;-83
2021/04/16 18:27:40;;;;;;;1.20;0.66;;;;;;;7.01;55.90;100097.69;1971909;82;20355;-81
2021/04/16 18:30:49;;;;;;;3.61;0.70;;;;;;;6.96;56.78;100100.13;1970516;80;37846;-82
2021/04/16 18:33:53;;;;;;;0.57;0.57;;;;;;;6.84;57.16;100097.31;1969376;82;20337;-81
2021/04/16 18:36:55;;;;;;;1.16;1.06;;;;;;;6.79;57.76;100103.19;1970474;82;20190;-77
2021/04/16 18:40:15;;;;;;;1.83;0.71;;;;;;;6.79;57.63;100100.59;1958546;82;20354;-78
2021/04/16 18:43:17;;;;;;;1.21;0.66;;;;;;;6.74;57.66;100103.09;1958773;82;20338;-75
2021/04/16 18:46:22;;;;;;;2.49;1.02;;;;;;;6.71;57.47;100094.41;1955047;80;36971;-75
2021/04/16 18:49:24;;;;;;;0.65;0.61;;;;;;;6.65;57.46;100105.47;1953473;83;20509;-76
2021/04/16 18:52:34;;;;;;;0.95;0.60;;;;;;;6.63;57.54;100101.97;1953554;83;20331;-74
2021/04/16 18:55:36;;;;;;;1.83;0.70;;;;;;;6.59;57.56;100106.19;1954359;83;20371;-80
2021/04/16 18:58:39;;;;;;;1.19;0.52;;;;;;;6.52;57.83;100106.91;1967596;83;20392;-81
2021/04/16 19:01:42;;;;;;;1.08;0.70;;;;;;;6.50;57.54;100100.84;1955683;80;20349;-74
2021/04/16 19:08:06;;;;;;;1.01;0.50;;;;;;;6.49;57.36;100105.97;2099463;72;20347;-85
2021/04/16 19:11:09;;;;;;;2.65;0.64;;;;;;;6.48;57.57;100109.38;1973275;82;20356;-79
2021/04/16 19:14:12;;;;;;;4.01;0.61;;;;;;;6.44;58.22;100120.44;1970950;82;20310;-85
2021/04/16 19:17:19;;;;;;;1.70;0.73;;;;;;;6.42;58.20;100122.09;1962622;80;21129;-83
2021/04/16 19:20:26;;;;;;;1.30;0.68;;;;;;;6.36;58.32;100115.97;1965951;83;20280;-83
2021/04/16 19:23:36;;;;;;;0.70;0.70;;;;;;;6.37;57.87;100127.16;1962487;82;20343;-83
2021/04/16 19:26:38;;;;;;;1.13;0.60;;;;;;;6.36;57.63;100133.16;1966071;83;20379;-84
2021/04/16 19:29:42;;;;;;;2.75;0.70;;;;;;;6.29;57.82;100131.28;1971803;82;20342;-85
2021/04/16 19:32:43;;;;;;;0.89;0.70;;;;;;;6.33;57.88;100133.09;1975039;80;20342;-85
2021/04/16 19:35:45;;;;;;;2.61;1.46;;;;;;;6.32;57.66;100136.50;1970848;83;20278;-83
2021/04/16 19:38:47;;;;;;;1.75;0.80;;;;;;;6.31;57.74;100139.94;1970388;83;20323;-79
2021/04/16 19:41:49;;;;;;;1.24;0.70;;;;;;;6.31;57.78;100130.47;1967102;83;20352;-84
2021/04/16 19:44:51;;;;;;;3.26;1.00;;;;;;;6.31;57.51;100134.75;1969168;82;20291;-83
2021/04/16 20:19:17;;;;;;;1.51;1.20;;;;;;;6.18;59.52;100132.72;1955716;83;20296;-81
2021/04/16 20:22:20;;;;;;;1.02;0.77;;;;;;;6.13;59.47;100135.19;1966271;83;20307;-82
2021/04/16 20:25:32;;;;;;;1.29;0.84;;;;;;;6.13;59.60;100134.31;1958735;83;20784;-81
2021/04/16 20:28:35;;;;;;;2.40;0.86;;;;;;;6.09;60.17;100132.47;1960862;83;20343;-80
2021/04/16 20:31:42;;;;;;;1.10;1.00;;;;;;;6.06;59.69;100130.69;1960134;83;20320;-80
2021/04/16 20:34:48;;;;;;;2.16;0.81;;;;;;;6.07;60.02;100135.88;1954069;83;21036;-77
2021/04/16 20:37:52;;;;;;;1.25;0.81;;;;;;;6.07;60.10;100135.88;1949320;83;20368;-77